Time,TemperatureF,DewpointF,PressureIn,WindDirection,WindDirectionDegrees,WindSpeedMPH,WindSpeedGustMPH,Humidity,HourlyPrecipIn,Conditions,Clouds,dailyrainin,SoftwareType,DateUTC
2014-04-18 00:52:00,52.0,25.0,29.70,ESE,111,14.0,19.0,35,0.00,,,0.00,,2014-04-18 06:52:00,
2014-04-18 01:22:00,52.0,25.0,29.73,SSW,195,8.0,12.0,34,0.00,,,0.00,,2014-04-18 07:22:00,
2014-04-18 01:52:00,52.0,33.0,29.71,WSW,238,5.0,9.0,48,0.00,,,0.00,,2014-04-18 07:52:00,
2014-04-18 02:21:00,51.0,33.0,29.71,WSW,241,2.0,4.0,49,0.00,,,0.00,,2014-04-18 08:21:00,
2014-04-18 02:52:00,51.0,29.0,29.71,WSW,241,4.0,5.0,43,0.00,,,0.00,,2014-04-18 08:52:00,
2014-04-18 03:21:00,50.0,30.0,29.70,SW,229,12.0,16.0,46,0.00,,,0.00,,2014-04-18 09:21:00,
2014-04-18 03:54:00,50.0,36.0,29.71,SW,222,14.0,21.0,59,0.00,,,0.00,,2014-04-18 09:54:00,
2014-04-18 04:23:00,48.0,37.0,29.72,WSW,251,16.0,30.0,66,0.00,,,0.00,,2014-04-18 10:23:00,
2014-04-18 04:54:00,46.0,38.0,29.72,WSW,246,20.0,25.0,74,0.00,,,0.00,,2014-04-18 10:54:00,
2014-04-18 05:21:00,45.0,39.0,29.73,SSW,211,14.0,23.0,78,0.00,,,0.00,,2014-04-18 11:21:00,
2014-04-18 05:53:00,43.0,37.0,29.73,West,268,18.0,25.0,80,0.00,,,0.00,,2014-04-18 11:53:00,
2014-04-18 06:22:00,43.0,38.0,29.74,WSW,253,15.0,25.0,84,0.00,,,0.00,,2014-04-18 12:22:00,
2014-04-18 06:52:00,43.0,38.0,29.76,SW,234,11.0,24.0,81,0.00,,,0.00,,2014-04-18 12:52:00,
2014-04-18 07:22:00,41.0,37.0,29.75,West,277,16.0,32.0,84,0.00,,,0.00,,2014-04-18 13:22:00,
2014-04-18 07:52:00,38.0,36.0,29.75,West,275,21.0,26.0,92,0.03,,,0.03,,2014-04-18 13:52:00,
2014-04-18 08:21:00,38.0,36.0,29.77,SW,228,12.0,25.0,92,0.06,,,0.06,,2014-04-18 14:21:00,
2014-04-18 08:42:00,39.0,37.0,29.77,WSW,240,12.0,21.0,92,0.12,,,0.12,,2014-04-18 14:42:00,
2014-04-18 08:51:00,39.0,37.0,29.78,SW,229,13.0,17.0,91,0.09,,,0.14,,2014-04-18 14:51:00,
2014-04-18 09:21:00,37.0,35.0,29.79,WSW,255,13.0,23.0,93,0.09,,,0.15,,2014-04-18 15:21:00,
2014-04-18 09:53:00,38.0,33.0,29.79,SW,230,17.0,29.0,83,0.01,,,0.15,,2014-04-18 15:53:00,
2014-04-18 10:22:00,38.0,32.0,29.81,SW,214,19.0,33.0,79,0.00,,,0.15,,2014-04-18 16:22:00,
2014-04-18 10:52:00,38.0,31.0,29.83,SW,236,14.0,20.0,77,0.00,,,0.15,,2014-04-18 16:52:00,
2014-04-18 11:22:00,39.0,31.0,29.83,SW,236,12.0,20.0,73,0.00,,,0.15,,2014-04-18 17:22:00,